Time;durP1;ratioP1;P1;durP2;ratioP2;P2;SDS_P1;SDS_P2;PMS_P1;PMS_P2;Temp;Humidity;BMP_temperature;BMP_pressure;BME280_temperature;BME280_humidity;BME280_pressure;Samples;Min_cycle;Max_cycle;Signal;HPM_P1;HPM_P2
2022/03/06 00:04:16;;;;;;;10.70;5.60;;;23.20;51.70;;;;;;220057;1267;22604;-57
2022/03/06 00:09:20;;;;;;;11.90;5.80;;;23.20;52.00;;;;;;220258;1267;22696;-54
2022/03/06 00:14:24;;;;;;;13.40;6.20;;;23.00;52.00;;;;;;220211;1268;25239;-56
2022/03/06 00:19:28;;;;;;;9.90;6.40;;;22.90;52.30;;;;;;220373;1267;23830;-55
2022/03/06 00:24:31;;;;;;;9.10;5.40;;;22.80;53.10;;;;;;220276;1267;24308;-54
2022/03/06 00:29:37;;;;;;;12.20;6.00;;;22.70;52.80;;;;;;220243;1267;22561;-56
2022/03/06 00:34:42;;;;;;;12.70;6.40;;;22.60;53.00;;;;;;220203;1267;25338;-55
2022/03/06 00:39:47;;;;;;;12.00;6.30;;;22.50;52.70;;;;;;220424;1267;22746;-55
2022/03/06 00:44:52;;;;;;;13.40;6.10;;;22.50;52.80;;;;;;220408;1267;22791;-54
2022/03/06 00:49:57;;;;;;;14.60;6.20;;;22.40;53.10;;;;;;220255;1268;24892;-53
2022/03/06 00:55:02;;;;;;;10.60;6.20;;;22.40;53.10;;;;;;220407;1267;22538;-56
2022/03/06 01:00:07;;;;;;;12.30;6.10;;;22.40;53.40;;;;;;220486;1267;22733;-57
2022/03/06 01:05:11;;;;;;;9.50;5.40;;;22.70;52.90;;;;;;220485;1265;25531;-56
2022/03/06 01:10:15;;;;;;;11.40;5.40;;;23.10;51.70;;;;;;220155;1267;24364;-56
2022/03/06 01:15:20;;;;;;;11.80;5.80;;;23.30;51.40;;;;;;220135;1267;22611;-56
2022/03/06 01:20:24;;;;;;;8.70;5.70;;;23.50;50.60;;;;;;220183;1267;22522;-59
2022/03/06 01:25:28;;;;;;;12.50;5.70;;;23.50;50.50;;;;;;220186;1267;22537;-56
2022/03/06 01:30:32;;;;;;;10.80;5.80;;;23.60;50.30;;;;;;220268;1267;22623;-57
2022/03/06 01:35:35;;;;;;;10.10;5.80;;;23.60;49.90;;;;;;220588;1267;26640;-56
2022/03/06 01:40:39;;;;;;;11.00;6.00;;;23.70;49.90;;;;;;220318;1267;22532;-57
2022/03/06 01:45:43;;;;;;;9.10;5.50;;;23.80;49.80;;;;;;220359;1267;23666;-58
2022/03/06 01:50:47;;;;;;;11.30;6.40;;;23.80;49.80;;;;;;220100;1267;22719;-57
2022/03/06 01:55:50;;;;;;;10.00;5.40;;;23.90;49.60;;;;;;220309;1267;22708;-59
2022/03/06 02:00:57;;;;;;;13.70;5.80;;;23.90;49.50;;;;;;220255;1268;24397;-55
2022/03/06 02:06:01;;;;;;;10.20;5.70;;;23.90;49.30;;;;;;220629;1267;22734;-59
2022/03/06 02:11:05;;;;;;;8.70;5.10;;;24.00;49.10;;;;;;220281;1267;25582;-57
2022/03/06 02:16:10;;;;;;;9.20;6.10;;;24.00;49.20;;;;;;220184;1268;22565;-57
2022/03/06 02:21:14;;;;;;;10.10;6.10;;;24.00;49.10;;;;;;220491;1265;25494;-58
2022/03/06 02:26:18;;;;;;;9.40;5.20;;;24.10;49.10;;;;;;220392;1264;22532;-56
2022/03/06 02:31:23;;;;;;;9.20;5.90;;;24.10;48.90;;;;;;220414;1264;24226;-54
2022/03/06 02:36:27;;;;;;;11.50;6.30;;;24.10;49.10;;;;;;220397;1264;22528;-56
2022/03/06 02:41:35;;;;;;;10.00;5.60;;;24.10;48.90;;;;;;220238;1268;24424;-56
2022/03/06 02:46:38;;;;;;;9.00;5.70;;;24.20;48.70;;;;;;220686;1265;22538;-56
2022/03/06 02:51:43;;;;;;;10.00;5.90;;;24.20;48.60;;;;;;220579;1265;22563;-58
2022/03/06 02:56:51;;;;;;;9.00;5.00;;;24.30;48.50;;;;;;220524;1265;22533;-57
2022/03/06 03:02:04;;;;;;;8.50;5.40;;;24.20;48.30;;;;;;220650;1264;22557;-56
2022/03/06 03:07:10;;;;;;;8.40;5.30;;;24.30;48.30;;;;;;220556;1265;25195;-55
2022/03/06 03:12:14;;;;;;;9.70;5.90;;;24.40;48.50;;;;;;220104;1268;22535;-57
2022/03/06 03:17:17;;;;;;;8.90;5.70;;;24.30;48.00;;;;;;220523;1267;25324;-56
2022/03/06 03:22:21;;;;;;;11.30;6.00;;;24.20;48.10;;;;;;220234;1267;22537;-57
2022/03/06 03:27:25;;;;;;;10.30;5.80;;;24.10;48.30;;;;;;220458;1269;25958;-57
2022/03/06 03:32:28;;;;;;;8.30;5.50;;;23.90;48.90;;;;;;220521;1268;25284;-56
2022/03/06 03:37:40;;;;;;;9.60;5.30;;;23.80;48.90;;;;;;220335;1268;25610;-57
2022/03/06 03:42:44;;;;;;;8.10;5.50;;;23.60;49.00;;;;;;220367;1268;25515;-56
2022/03/06 03:47:48;;;;;;;11.80;5.90;;;23.50;49.20;;;;;;220596;1268;25397;-55
2022/03/06 03:52:51;;;;;;;9.60;5.90;;;23.40;49.60;;;;;;220155;1268;22696;-57
2022/03/06 03:57:55;;;;;;;8.50;5.20;;;23.30;49.30;;;;;;220538;1268;25239;-56
2022/03/06 04:02:59;;;;;;;10.10;5.70;;;23.30;49.50;;;;;;220391;1269;25432;-57
2022/03/06 04:08:04;;;;;;;7.30;5.00;;;23.20;49.80;;;;;;220595;1268;22524;-56
2022/03/06 04:13:09;;;;;;;7.80;5.30;;;23.10;49.60;;;;;;220667;1268;24405;-57
2022/03/06 04:18:14;;;;;;;10.00;6.10;;;23.00;49.60;;;;;;220367;1268;23113;-57
2022/03/06 04:23:17;;;;;;;8.50;5.60;;;22.90;49.80;;;;;;220481;1268;22689;-54
2022/03/06 04:28:21;;;;;;;8.80;5.60;;;22.90;49.80;;;;;;220333;1268;22731;-57
2022/03/06 04:33:25;;;;;;;11.80;5.80;;;22.70;49.80;;;;;;220284;1268;22523;-56
2022/03/06 04:38:30;;;;;;;10.30;5.70;;;22.70;50.10;;;;;;220361;1268;25433;-58
2022/03/06 04:43:33;;;;;;;8.60;5.70;;;22.60;50.10;;;;;;220502;1268;22626;-54
2022/03/06 04:48:37;;;;;;;9.30;5.70;;;22.60;50.30;;;;;;220345;1268;24297;-56
2022/03/06 04:53:41;;;;;;;9.50;6.00;;;22.50;50.30;;;;;;220791;1268;23472;-55
2022/03/06 04:58:45;;;;;;;11.50;5.20;;;22.50;50.30;;;;;;220462;1268;25244;-56
2022/03/06 05:03:48;;;;;;;9.80;5.30;;;22.50;50.40;;;;;;220459;1268;22569;-55
2022/03/06 05:08:52;;;;;;;9.10;5.30;;;22.70;50.30;;;;;;220255;1268;24064;-55
2022/03/06 05:13:57;;;;;;;8.70;5.70;;;23.10;49.60;;;;;;220820;1268;22566;-57
2022/03/06 05:19:01;;;;;;;8.60;5.20;;;23.30;48.90;;;;;;220220;1268;23999;-57
2022/03/06 05:24:05;;;;;;;8.10;5.20;;;23.50;48.80;;;;;;220346;1268;22689;-57
2022/03/06 05:29:09;;;;;;;7.80;5.10;;;23.60;47.90;;;;;;220649;1268;22598;-56
2022/03/06 05:34:13;;;;;;;11.00;5.60;;;23.70;47.90;;;;;;220480;1268;22522;-55
2022/03/06 05:39:16;;;;;;;8.80;5.50;;;23.80;47.50;;;;;;220493;1268;24291;-57
2022/03/06 05:44:21;;;;;;;8.90;5.60;;;23.80;47.40;;;;;;220384;1268;22692;-58
2022/03/06 05:49:25;;;;;;;7.60;5.50;;;23.90;47.10;;;;;;220424;1268;22541;-57
2022/03/06 05:54:30;;;;;;;8.60;5.30;;;23.90;47.10;;;;;;220209;1268;22550;-56
2022/03/06 05:59:33;;;;;;;9.50;5.90;;;23.90;47.00;;;;;;220458;1268;24250;-55
2022/03/06 06:04:37;;;;;;;8.90;5.00;;;24.00;46.90;;;;;;220694;1268;23573;-56
2022/03/06 06:09:41;;;;;;;8.00;5.20;;;24.00;46.80;;;;;;219991;1268;22593;-57
2022/03/06 06:14:44;;;;;;;8.50;5.10;;;24.00;46.80;;;;;;221005;1267;22522;-56
2022/03/06 06:19:48;;;;;;;9.40;5.20;;;24.10;46.80;;;;;;220683;1268;25237;-56
2022/03/06 06:24:52;;;;;;;8.50;5.50;;;24.10;46.60;;;;;;220099;1267;25556;-56
2022/03/06 06:29:55;;;;;;;11.80;5.70;;;24.10;46.50;;;;;;220383;1268;25506;-56
2022/03/06 06:34:59;;;;;;;9.30;5.70;;;24.10;46.70;;;;;;220741;1268;25050;-56
2022/03/06 06:40:04;;;;;;;8.80;5.40;;;24.10;46.40;;;;;;220002;1267;22542;-57
2022/03/06 06:45:08;;;;;;;10.20;6.20;;;24.20;46.50;;;;;;220385;1268;25314;-57
2022/03/06 06:50:12;;;;;;;8.60;5.60;;;24.20;46.80;;;;;;220717;1268;22532;-57
2022/03/06 06:55:15;;;;;;;9.50;5.40;;;24.20;46.30;;;;;;220360;1267;22602;-57
2022/03/06 07:00:21;;;;;;;10.40;5.40;;;24.30;46.60;;;;;;220559;1267;23754;-57
2022/03/06 07:05:27;;;;;;;10.30;6.00;;;24.30;46.80;;;;;;220233;1267;22573;-57
2022/03/06 07:10:33;;;;;;;7.80;5.90;;;24.30;46.10;;;;;;220339;1267;26557;-56
2022/03/06 07:15:36;;;;;;;7.60;5.00;;;24.20;46.60;;;;;;220554;1268;23030;-57
2022/03/06 07:20:44;;;;;;;8.10;5.50;;;24.10;46.20;;;;;;220226;1268;22745;-56
2022/03/06 07:25:49;;;;;;;8.50;5.40;;;24.00;46.30;;;;;;220393;1267;22542;-55
2022/03/06 07:30:55;;;;;;;9.50;5.90;;;23.90;46.60;;;;;;220852;1267;22683;-57
2022/03/06 07:35:59;;;;;;;10.50;5.80;;;23.70;46.80;;;;;;220419;1268;22561;-56
2022/03/06 07:41:03;;;;;;;8.90;5.60;;;23.60;47.20;;;;;;220351;1267;22546;-57
2022/03/06 07:46:06;;;;;;;10.10;5.60;;;23.40;47.40;;;;;;220300;1267;22598;-56
2022/03/06 07:51:11;;;;;;;9.30;5.60;;;23.40;47.40;;;;;;220898;1267;22525;-55
2022/03/06 07:56:14;;;;;;;9.10;6.10;;;23.40;47.50;;;;;;220193;1267;24252;-55
2022/03/06 08:01:23;;;;;;;9.80;6.10;;;23.30;47.80;;;;;;220511;1267;25516;-54
2022/03/06 08:06:27;;;;;;;8.80;5.60;;;23.20;47.90;;;;;;220616;1267;24579;-56
2022/03/06 08:11:30;;;;;;;10.50;5.40;;;23.10;47.50;;;;;;220410;1268;22871;-56
2022/03/06 08:16:36;;;;;;;10.50;5.70;;;23.10;47.70;;;;;;220391;1267;22756;-54
2022/03/06 08:21:39;;;;;;;13.40;6.40;;;23.00;47.90;;;;;;220465;1267;23944;-54
2022/03/06 08:26:44;;;;;;;8.90;5.10;;;23.00;48.00;;;;;;220429;1268;24336;-55
2022/03/06 08:31:47;;;;;;;9.70;6.30;;;22.90;47.90;;;;;;220305;1267;22855;-55
2022/03/06 08:36:56;;;;;;;10.10;6.20;;;22.90;47.90;;;;;;220130;1267;22646;-55
2022/03/06 08:42:00;;;;;;;8.60;5.50;;;22.90;48.20;;;;;;220522;1267;22616;-54
2022/03/06 08:47:17;;;;;;;10.50;5.90;;;22.80;48.00;;;;;;220058;1267;25516;-54
2022/03/06 08:52:21;;;;;;;9.40;6.10;;;22.80;48.00;;;;;;220510;1267;26543;-53
2022/03/06 08:57:25;;;;;;;8.80;5.90;;;22.80;48.10;;;;;;220536;1265;25444;-54
2022/03/06 09:02:28;;;;;;;8.20;5.50;;;22.60;48.00;;;;;;220435;1265;22591;-54
2022/03/06 09:07:40;;;;;;;;;;;22.60;48.10;;;;;;220893;1264;22626;-54
2022/03/06 09:12:44;;;;;;;8.30;5.50;;;22.50;48.20;;;;;;220671;1265;22538;-55
2022/03/06 09:17:49;;;;;;;8.80;6.10;;;22.50;48.10;;;;;;220110;1267;25320;-55
2022/03/06 09:22:59;;;;;;;9.70;5.60;;;22.70;48.10;;;;;;220516;1267;22628;-55
2022/03/06 09:28:07;;;;;;;8.00;5.60;;;23.10;47.10;;;;;;220491;1267;22649;-55
2022/03/06 09:33:14;;;;;;;8.60;5.70;;;23.30;46.50;;;;;;220348;1267;239773;-55
2022/03/06 09:38:22;;;;;;;9.50;6.20;;;23.50;46.00;;;;;;220413;1264;22607;-53
2022/03/06 09:43:34;;;;;;;8.80;6.00;;;23.70;45.80;;;;;;220134;1264;22657;-56
2022/03/06 09:48:39;;;;;;;8.80;5.50;;;23.80;45.60;;;;;;220289;1267;25641;-56
2022/03/06 09:54:09;;;;;;;7.50;5.10;;;23.80;45.60;;;;;;220391;1264;26661;-54
2022/03/06 09:59:17;;;;;;;7.70;5.70;;;23.80;45.60;;;;;;220584;1264;25554;-55
2022/03/06 10:04:37;;;;;;;8.70;6.00;;;23.80;45.50;;;;;;220363;1265;25349;-52
2022/03/06 10:09:55;;;;;;;8.40;5.60;;;23.90;45.90;;;;;;219965;1267;23810;-55
2022/03/06 10:15:10;;;;;;;8.60;5.80;;;23.90;45.70;;;;;;220350;1265;23306;-56
2022/03/06 10:20:32;;;;;;;18.40;6.40;;;23.80;45.80;;;;;;220623;1265;22600;-55
2022/03/06 10:25:39;;;;;;;15.10;6.20;;;23.90;46.40;;;;;;220426;1267;22578;-56
2022/03/06 10:30:43;;;;;;;15.70;6.10;;;24.10;49.00;;;;;;220493;1267;25314;-55
2022/03/06 10:35:50;;;;;;;9.60;5.60;;;24.20;48.50;;;;;;220697;1267;22535;-55
2022/03/06 10:41:17;;;;;;;16.20;6.00;;;24.20;48.60;;;;;;220165;1267;23821;-54
2022/03/06 10:46:22;;;;;;;10.00;5.60;;;24.30;48.90;;;;;;220200;1267;24761;-55
2022/03/06 10:51:27;;;;;;;18.70;5.60;;;24.30;48.80;;;;;;220177;1264;24421;-54
2022/03/06 10:56:30;;;;;;;12.70;6.00;;;24.10;49.30;;;;;;220336;1267;24261;-55
2022/03/06 11:01:38;;;;;;;11.40;6.00;;;23.90;50.70;;;;;;220446;1267;24232;-57
2022/03/06 11:06:52;;;;;;;14.20;5.90;;;23.80;51.00;;;;;;220176;1267;22592;-54
2022/03/06 11:11:56;;;;;;;9.80;5.60;;;23.70;50.70;;;;;;220520;1267;25712;-55
2022/03/06 11:17:00;;;;;;;15.40;6.00;;;23.50;50.90;;;;;;220538;1267;25554;-55
2022/03/06 11:22:19;;;;;;;14.90;6.10;;;23.30;51.00;;;;;;220550;1267;25473;-55
2022/03/06 11:27:45;;;;;;;10.70;5.20;;;23.20;50.90;;;;;;220819;1268;22547;-55
2022/03/06 11:33:08;;;;;;;14.40;6.20;;;23.10;50.70;;;;;;220634;1267;22558;-53
2022/03/06 11:38:20;;;;;;;10.30;6.20;;;23.10;50.50;;;;;;220525;1267;22553;-54
2022/03/06 11:43:38;;;;;;;11.60;6.00;;;23.10;50.90;;;;;;220295;1267;25618;-56
2022/03/06 11:48:45;;;;;;;13.70;6.10;;;23.00;51.20;;;;;;221394;1265;22549;-55
2022/03/06 11:54:07;;;;;;;12.20;6.10;;;23.00;51.20;;;;;;220108;1265;22538;-55
2022/03/06 11:59:17;;;;;;;10.90;5.80;;;22.90;51.50;;;;;;220339;1265;25367;-55
2022/03/06 12:04:29;;;;;;;12.00;6.30;;;22.90;50.50;;;;;;220113;1267;22703;-54
2022/03/06 12:09:44;;;;;;;9.50;5.60;;;22.80;50.50;;;;;;219954;1267;24550;-57
2022/03/06 12:14:56;;;;;;;20.20;6.80;;;22.80;50.40;;;;;;220167;1267;23842;-53
2022/03/06 12:20:25;;;;;;;16.10;5.70;;;22.80;50.20;;;;;;220128;1267;24238;-55
2022/03/06 12:25:33;;;;;;;10.20;5.90;;;22.70;50.00;;;;;;220171;1264;22774;-54
2022/03/06 12:30:38;;;;;;;16.30;6.40;;;22.70;49.20;;;;;;220253;1267;24373;-55
2022/03/06 12:35:44;;;;;;;14.10;7.00;;;22.60;48.60;;;;;;220231;1267;22748;-57
2022/03/06 12:40:47;;;;;;;16.50;6.60;;;22.50;48.10;;;;;;220703;1265;23834;-55
2022/03/06 12:45:52;;;;;;;13.30;6.80;;;22.50;48.30;;;;;;220478;1265;25688;-55
2022/03/06 12:50:59;;;;;;;14.70;7.10;;;22.50;47.90;;;;;;220580;1267;22721;-54
2022/03/06 12:56:08;;;;;;;14.10;7.60;;;22.40;48.20;;;;;;220536;1264;24256;-56
2022/03/06 13:01:12;;;;;;;11.20;7.00;;;22.40;47.60;;;;;;220528;1267;22704;-55
2022/03/06 13:06:16;;;;;;;10.50;6.30;;;22.30;47.90;;;;;;220320;1264;22549;-56
2022/03/06 13:11:22;;;;;;;10.20;6.90;;;22.30;47.90;;;;;;220244;1267;25371;-56
2022/03/06 13:16:28;;;;;;;10.50;7.00;;;22.60;47.40;;;;;;220630;1267;22553;-58
2022/03/06 13:21:37;;;;;;;11.80;7.20;;;22.90;46.80;;;;;;221812;1267;25314;-53
2022/03/06 13:26:41;;;;;;;13.80;7.20;;;23.10;45.60;;;;;;220561;1267;22780;-54
2022/03/06 13:31:46;;;;;;;17.10;7.70;;;23.30;45.10;;;;;;220716;1267;22628;-54
2022/03/06 13:36:50;;;;;;;16.60;7.40;;;23.50;45.50;;;;;;220313;1267;22552;-56
2022/03/06 13:41:58;;;;;;;13.30;6.90;;;23.50;45.60;;;;;;220119;1265;24284;-59
2022/03/06 13:47:10;;;;;;;17.00;6.60;;;23.60;44.60;;;;;;220037;1267;22551;-58
2022/03/06 13:52:13;;;;;;;15.20;6.90;;;23.60;44.60;;;;;;228314;1269;22178;-57
2022/03/06 13:57:17;;;;;;;11.40;6.90;;;23.70;44.40;;;;;;227054;1265;22655;-58
2022/03/06 14:02:26;;;;;;;14.00;7.30;;;23.70;44.60;;;;;;220265;1264;22588;-55
2022/03/06 14:07:30;;;;;;;12.70;7.50;;;23.90;44.20;;;;;;226541;1265;24045;-54
2022/03/06 14:12:35;;;;;;;19.20;7.10;;;23.90;44.10;;;;;;220101;1264;22585;-58
2022/03/06 14:17:39;;;;;;;13.20;7.20;;;23.90;43.90;;;;;;221119;1267;23077;-59
2022/03/06 14:22:47;;;;;;;10.00;6.70;;;24.10;44.30;;;;;;228271;1267;22489;-54
2022/03/06 14:27:50;;;;;;;17.40;7.50;;;24.10;44.40;;;;;;220635;1267;24429;-57
2022/03/06 14:32:55;;;;;;;15.40;6.70;;;24.10;44.20;;;;;;228037;1266;22378;-56
2022/03/06 14:38:00;;;;;;;11.20;7.00;;;24.10;44.30;;;;;;224147;1267;22777;-57
2022/03/06 14:43:06;;;;;;;12.80;6.50;;;24.00;44.50;;;;;;227928;1267;23277;-56
2022/03/06 14:48:13;;;;;;;12.10;7.20;;;23.90;44.60;;;;;;220967;1264;25252;-56
2022/03/06 14:53:20;;;;;;;10.50;6.90;;;23.80;44.50;;;;;;221048;1265;22533;-59
2022/03/06 14:58:24;;;;;;;10.20;6.60;;;23.80;44.90;;;;;;220847;1264;25235;-57
2022/03/06 15:03:30;;;;;;;13.80;7.40;;;23.60;45.90;;;;;;220385;1264;22546;-56
2022/03/06 15:08:34;;;;;;;12.30;7.40;;;23.50;47.10;;;;;;220331;1265;22534;-56
2022/03/06 15:13:51;;;;;;;12.40;8.40;;;23.50;48.30;;;;;;220279;1264;24363;-53
2022/03/06 15:19:04;;;;;;;12.70;6.80;;;23.40;48.70;;;;;;220259;1267;22581;-55
2022/03/06 15:24:18;;;;;;;12.10;6.90;;;23.30;48.20;;;;;;220398;1267;22814;-55
2022/03/06 15:29:31;;;;;;;10.20;6.70;;;23.10;49.00;;;;;;220649;1267;22590;-54
2022/03/06 15:34:34;;;;;;;11.50;6.50;;;23.00;48.70;;;;;;220225;1265;22602;-54
2022/03/06 15:39:38;;;;;;;10.90;6.70;;;23.00;48.60;;;;;;220274;1267;24227;-56
2022/03/06 15:44:43;;;;;;;12.60;7.30;;;22.90;48.10;;;;;;220454;1267;25321;-51
2022/03/06 15:49:55;;;;;;;18.20;7.80;;;22.90;48.90;;;;;;220227;1266;22717;-55
2022/03/06 15:55:03;;;;;;;9.00;6.60;;;22.80;48.70;;;;;;220309;1267;22761;-54
2022/03/06 16:00:17;;;;;;;17.40;7.40;;;22.80;48.50;;;;;;220068;1264;22546;-53
2022/03/06 16:05:45;;;;;;;15.50;7.40;;;22.90;48.60;;;;;;220099;1264;25311;-59
2022/03/06 16:10:57;;;;;;;12.10;6.90;;;22.80;49.00;;;;;;220101;1267;22682;-56
2022/03/06 16:16:09;;;;;;;16.20;7.10;;;22.80;48.60;;;;;;220093;1265;22653;-55
2022/03/06 16:21:18;;;;;;;11.30;8.10;;;22.70;48.90;;;;;;220216;1264;24323;-57
2022/03/06 16:26:22;;;;;;;12.50;7.10;;;22.60;49.00;;;;;;220192;1264;22592;-58
2022/03/06 16:31:26;;;;;;;13.60;7.30;;;22.50;49.10;;;;;;220393;1264;24208;-57
2022/03/06 16:36:33;;;;;;;13.50;7.90;;;22.50;49.40;;;;;;220215;1264;25622;-56
2022/03/06 16:41:42;;;;;;;15.20;8.30;;;22.50;49.20;;;;;;220295;1265;24027;-58
2022/03/06 16:46:53;;;;;;;17.40;8.10;;;22.50;48.80;;;;;;220640;1264;22533;-59
2022/03/06 16:51:59;;;;;;;14.40;8.60;;;22.40;49.50;;;;;;220030;1264;22665;-57
2022/03/06 16:57:07;;;;;;;17.20;9.30;;;22.40;50.10;;;;;;220115;1267;22803;-56
2022/03/06 17:02:23;;;;;;;14.80;8.30;;;22.30;49.90;;;;;;219958;1264;23017;-56
2022/03/06 17:07:38;;;;;;;16.00;9.70;;;22.30;49.90;;;;;;220221;1265;24241;-57
2022/03/06 17:12:46;;;;;;;14.90;9.10;;;22.40;49.60;;;;;;220138;1265;22536;-58
2022/03/06 17:18:24;;;;;;;16.70;9.00;;;22.40;48.90;;;;;;219564;1264;25395;-56
2022/03/06 17:23:59;;;;;;;15.30;9.30;;;22.30;49.10;;;;;;220142;1264;24254;-57
2022/03/06 17:29:26;;;;;;;17.90;9.40;;;22.30;48.60;;;;;;220185;1265;22603;-56
2022/03/06 17:34:46;;;;;;;16.70;8.50;;;22.20;48.00;;;;;;220298;1265;24260;-56
2022/03/06 17:39:51;;;;;;;15.80;9.00;;;22.20;47.70;;;;;;220579;1264;25207;-56
2022/03/06 17:45:03;;;;;;;16.20;9.40;;;22.10;47.70;;;;;;220534;1264;22552;-56
2022/03/06 17:50:07;;;;;;;21.70;10.00;;;22.10;48.50;;;;;;220467;1264;22967;-53
2022/03/06 17:55:11;;;;;;;17.30;9.40;;;22.10;49.70;;;;;;220560;1266;22541;-58
2022/03/06 18:00:27;;;;;;;19.00;9.20;;;22.10;49.40;;;;;;220210;1265;22534;-59
2022/03/06 18:05:37;;;;;;;15.40;9.40;;;22.10;48.70;;;;;;220009;1267;23933;-56
2022/03/06 18:10:41;;;;;;;19.20;9.80;;;22.00;48.90;;;;;;220087;1264;25242;-56
2022/03/06 18:15:45;;;;;;;25.30;10.30;;;22.00;48.40;;;;;;219805;1267;26231;-56
2022/03/06 18:21:14;;;;;;;21.90;10.40;;;21.90;47.70;;;;;;220175;1267;22684;-57
2022/03/06 18:26:20;;;;;;;17.00;9.60;;;22.00;48.40;;;;;;220463;1266;22668;-57
2022/03/06 18:31:41;;;;;;;17.40;9.30;;;22.00;48.50;;;;;;220639;1267;22649;-58
2022/03/06 18:36:47;;;;;;;16.40;8.70;;;21.90;48.60;;;;;;220117;1267;22618;-57
2022/03/06 18:41:51;;;;;;;19.10;9.90;;;21.90;48.20;;;;;;220036;1267;22878;-56
2022/03/06 18:46:55;;;;;;;18.80;9.40;;;21.80;49.00;;;;;;219997;1267;22557;-55
2022/03/06 18:52:00;;;;;;;15.70;8.90;;;21.80;49.10;;;;;;220144;1267;22666;-57
2022/03/06 18:57:04;;;;;;;17.20;9.40;;;21.80;49.30;;;;;;219996;1267;22570;-58
2022/03/06 19:02:09;;;;;;;15.80;9.00;;;21.80;49.10;;;;;;219820;1267;22610;-56
2022/03/06 19:07:16;;;;;;;15.30;8.90;;;21.70;48.60;;;;;;220128;1267;25366;-56
2022/03/06 19:12:20;;;;;;;15.50;9.10;;;21.90;48.90;;;;;;220449;1268;22703;-57
2022/03/06 19:17:24;;;;;;;16.50;9.30;;;22.30;47.50;;;;;;219833;1267;25242;-58
2022/03/06 19:22:28;;;;;;;12.50;8.40;;;22.70;46.70;;;;;;220313;1267;22547;-57
2022/03/06 19:27:38;;;;;;;15.10;8.60;;;23.00;46.50;;;;;;220148;1267;26865;-59
2022/03/06 19:32:53;;;;;;;16.10;8.10;;;23.20;46.50;;;;;;219843;1266;25249;-57
2022/03/06 19:38:07;;;;;;;15.90;9.10;;;23.40;46.10;;;;;;219883;1267;25608;-56
2022/03/06 19:43:12;;;;;;;14.70;7.80;;;23.50;45.90;;;;;;220243;1267;25401;-58
2022/03/06 19:48:19;;;;;;;12.40;7.60;;;23.60;46.10;;;;;;219959;1267;26311;-58
2022/03/06 19:53:24;;;;;;;15.80;7.90;;;23.60;45.10;;;;;;220125;1267;22759;-57
2022/03/06 19:58:39;;;;;;;11.90;7.50;;;23.60;45.60;;;;;;220153;1267;24357;-54
2022/03/06 20:03:44;;;;;;;14.10;7.90;;;23.40;45.60;;;;;;220619;1267;25719;-53
2022/03/06 20:08:48;;;;;;;15.90;8.30;;;23.30;45.70;;;;;;220146;1267;25352;-56
2022/03/06 20:13:53;;;;;;;17.10;8.20;;;23.10;46.40;;;;;;220374;1267;24255;-51
2022/03/06 20:18:56;;;;;;;12.10;7.20;;;23.00;45.90;;;;;;220713;1267;22618;-52
2022/03/06 20:24:04;;;;;;;12.80;8.10;;;22.80;46.00;;;;;;220493;1267;24229;-51
2022/03/06 20:29:08;;;;;;;11.40;7.60;;;22.80;46.10;;;;;;220372;1267;22575;-52
2022/03/06 20:34:14;;;;;;;14.90;8.00;;;22.80;46.20;;;;;;220374;1267;22537;-52
2022/03/06 20:39:20;;;;;;;12.90;7.90;;;22.70;47.30;;;;;;220310;1267;22520;-54
2022/03/06 20:44:27;;;;;;;16.10;8.30;;;22.60;46.90;;;;;;220479;1267;25525;-55
2022/03/06 20:49:31;;;;;;;18.20;7.60;;;22.60;46.90;;;;;;220564;1268;25596;-51
2022/03/06 20:54:38;;;;;;;15.60;8.00;;;22.50;46.90;;;;;;220648;1267;22537;-61
2022/03/06 20:59:45;;;;;;;13.70;7.20;;;22.50;47.20;;;;;;221444;1267;25461;-54
2022/03/06 21:04:49;;;;;;;16.30;7.80;;;22.40;47.90;;;;;;220354;1268;24166;-52
2022/03/06 21:09:54;;;;;;;12.80;7.90;;;22.40;47.40;;;;;;220588;1264;22566;-50
2022/03/06 21:15:09;;;;;;;12.60;7.90;;;22.30;47.20;;;;;;220250;1267;22614;-55
2022/03/06 21:20:13;;;;;;;17.40;8.10;;;22.30;47.30;;;;;;220391;1268;22725;-53
2022/03/06 21:25:18;;;;;;;15.40;7.90;;;22.30;47.70;;;;;;220658;1267;24239;-55
2022/03/06 21:30:23;;;;;;;17.20;8.70;;;22.20;47.80;;;;;;220417;1268;239041;-51
2022/03/06 21:35:27;;;;;;;14.90;8.50;;;22.20;47.30;;;;;;220779;1267;25253;-52
2022/03/06 21:40:34;;;;;;;12.60;7.90;;;22.40;47.00;;;;;;220599;1267;24261;-54
2022/03/06 21:45:47;;;;;;;14.80;8.40;;;22.80;46.70;;;;;;220486;1267;22541;-55
2022/03/06 21:50:56;;;;;;;14.30;8.20;;;23.10;45.50;;;;;;220585;1267;22620;-54
2022/03/06 21:56:00;;;;;;;14.20;7.70;;;23.30;45.20;;;;;;220343;1267;22723;-51
2022/03/06 22:01:05;;;;;;;13.30;7.00;;;23.40;44.90;;;;;;220494;1265;22541;-56
2022/03/06 22:06:10;;;;;;;14.20;8.30;;;23.30;44.70;;;;;;220249;1268;22547;-52
2022/03/06 22:11:19;;;;;;;13.50;7.30;;;23.40;44.70;;;;;;220448;1264;22690;-52
2022/03/06 22:16:25;;;;;;;11.80;7.20;;;23.50;44.50;;;;;;220576;1268;22796;-50
2022/03/06 22:21:37;;;;;;;12.50;8.00;;;23.70;44.50;;;;;;220429;1268;26711;-54
2022/03/06 22:26:45;;;;;;;13.60;7.20;;;23.80;44.80;;;;;;220630;1265;22555;-51
2022/03/06 22:31:50;;;;;;;10.50;7.00;;;23.90;44.80;;;;;;220751;1264;24234;-51
2022/03/06 22:36:55;;;;;;;11.70;7.00;;;24.00;44.80;;;;;;221103;1267;25519;-53
2022/03/06 22:41:59;;;;;;;15.10;6.70;;;23.90;44.70;;;;;;220553;1265;22593;-54
2022/03/06 22:47:07;;;;;;;11.90;6.60;;;24.00;44.50;;;;;;220641;1268;22572;-54
2022/03/06 22:52:12;;;;;;;10.50;6.80;;;24.00;44.60;;;;;;220698;1268;22545;-54
2022/03/06 22:57:35;;;;;;;12.20;6.70;;;24.00;44.60;;;;;;220820;1267;25474;-53
2022/03/06 23:02:55;;;;;;;11.30;6.50;;;24.10;44.90;;;;;;220777;1267;25365;-54
2022/03/06 23:08:14;;;;;;;10.40;7.00;;;24.10;44.70;;;;;;220786;1265;24368;-55
2022/03/06 23:13:24;;;;;;;11.50;6.90;;;24.10;44.30;;;;;;220480;1268;25253;-54
2022/03/06 23:18:29;;;;;;;11.50;7.20;;;24.20;44.30;;;;;;220910;1265;24309;-54
2022/03/06 23:23:40;;;;;;;12.90;7.10;;;24.10;44.30;;;;;;221055;1268;22554;-54
2022/03/06 23:28:48;;;;;;;11.50;7.10;;;24.00;44.50;;;;;;220626;1268;22550;-50
2022/03/06 23:34:03;;;;;;;11.90;7.20;;;23.90;44.60;;;;;;220605;1265;25485;-53
2022/03/06 23:39:22;;;;;;;11.80;7.50;;;23.80;44.50;;;;;;220839;1269;22743;-52
2022/03/06 23:44:27;;;;;;;11.10;7.40;;;23.70;44.90;;;;;;220526;1268;24238;-52
2022/03/06 23:49:33;;;;;;;10.60;6.90;;;23.60;45.30;;;;;;220401;1268;26547;-54
2022/03/06 23:54:40;;;;;;;14.30;7.00;;;23.40;45.60;;;;;;220095;1268;22652;-51
2022/03/06 23:59:43;;;;;;;11.70;6.50;;;23.30;46.50;;;;;;220186;1265;25424;-53
